sensor_id;sensor_type;location;lat;lon;timestamp;P1;durP1;ratioP1;P2;durP2;ratioP2
39502;SDS011;26970;49.900;10.774;2022-08-20T00:00:30;23.20;;;18.98;;
39502;SDS011;26970;49.900;10.774;2022-08-20T00:02:59;22.65;;;19.48;;
39502;SDS011;26970;49.900;10.774;2022-08-20T00:05:31;22.27;;;19.88;;
39502;SDS011;26970;49.900;10.774;2022-08-20T00:07:59;22.67;;;19.33;;
39502;SDS011;26970;49.900;10.774;2022-08-20T00:10:26;23.42;;;19.48;;
39502;SDS011;26970;49.900;10.774;2022-08-20T00:12:52;22.55;;;19.05;;
39502;SDS011;26970;49.900;10.774;2022-08-20T00:15:20;24.20;;;19.75;;
39502;SDS011;26970;49.900;10.774;2022-08-20T00:17:49;23.35;;;20.08;;
39502;SDS011;26970;49.900;10.774;2022-08-20T00:20:17;20.65;;;18.45;;
39502;SDS011;26970;49.900;10.774;2022-08-20T00:22:44;20.65;;;18.48;;
39502;SDS011;26970;49.900;10.774;2022-08-20T00:25:11;22.05;;;19.23;;
39502;SDS011;26970;49.900;10.774;2022-08-20T00:27:37;20.80;;;18.25;;
39502;SDS011;26970;49.900;10.774;2022-08-20T00:30:04;23.30;;;18.38;;
39502;SDS011;26970;49.900;10.774;2022-08-20T00:32:34;23.00;;;18.27;;
39502;SDS011;26970;49.900;10.774;2022-08-20T00:35:19;24.20;;;18.60;;
39502;SDS011;26970;49.900;10.774;2022-08-20T00:37:48;23.83;;;18.83;;
39502;SDS011;26970;49.900;10.774;2022-08-20T00:40:15;21.83;;;17.98;;
39502;SDS011;26970;49.900;10.774;2022-08-20T00:42:47;22.30;;;18.58;;
39502;SDS011;26970;49.900;10.774;2022-08-20T00:45:16;20.33;;;18.02;;
39502;SDS011;26970;49.900;10.774;2022-08-20T00:47:44;21.83;;;19.48;;
39502;SDS011;26970;49.900;10.774;2022-08-20T00:50:13;24.80;;;20.40;;
39502;SDS011;26970;49.900;10.774;2022-08-20T00:52:42;23.00;;;20.52;;
39502;SDS011;26970;49.900;10.774;2022-08-20T00:55:12;23.88;;;19.70;;
39502;SDS011;26970;49.900;10.774;2022-08-20T00:57:40;22.17;;;19.58;;
39502;SDS011;26970;49.900;10.774;2022-08-20T01:00:14;22.15;;;19.75;;
39502;SDS011;26970;49.900;10.774;2022-08-20T01:02:47;31.08;;;20.52;;
39502;SDS011;26970;49.900;10.774;2022-08-20T01:05:14;25.55;;;21.45;;
39502;SDS011;26970;49.900;10.774;2022-08-20T01:07:40;24.42;;;20.63;;
39502;SDS011;26970;49.900;10.774;2022-08-20T01:10:17;24.58;;;20.25;;
39502;SDS011;26970;49.900;10.774;2022-08-20T01:12:46;25.58;;;20.58;;
39502;SDS011;26970;49.900;10.774;2022-08-20T01:15:14;22.52;;;18.85;;
39502;SDS011;26970;49.900;10.774;2022-08-20T01:17:45;23.42;;;19.05;;
39502;SDS011;26970;49.900;10.774;2022-08-20T01:26:02;26.40;;;20.60;;
39502;SDS011;26970;49.900;10.774;2022-08-20T01:31:50;25.45;;;19.75;;
39502;SDS011;26970;49.900;10.774;2022-08-20T01:34:17;21.10;;;18.80;;
39502;SDS011;26970;49.900;10.774;2022-08-20T01:36:48;23.85;;;19.25;;
39502;SDS011;26970;49.900;10.774;2022-08-20T01:39:17;20.63;;;18.38;;
39502;SDS011;26970;49.900;10.774;2022-08-20T01:44:28;21.05;;;18.33;;
39502;SDS011;26970;49.900;10.774;2022-08-20T01:46:55;21.30;;;18.98;;
39502;SDS011;26970;49.900;10.774;2022-08-20T01:49:26;23.83;;;18.48;;
39502;SDS011;26970;49.900;10.774;2022-08-20T01:51:55;27.98;;;18.25;;
39502;SDS011;26970;49.900;10.774;2022-08-20T01:54:25;24.10;;;18.80;;
39502;SDS011;26970;49.900;10.774;2022-08-20T01:59:28;20.67;;;17.60;;
39502;SDS011;26970;49.900;10.774;2022-08-20T02:01:56;22.35;;;17.60;;
39502;SDS011;26970;49.900;10.774;2022-08-20T02:04:23;20.77;;;18.52;;
39502;SDS011;26970;49.900;10.774;2022-08-20T02:06:50;22.42;;;17.73;;
39502;SDS011;26970;49.900;10.774;2022-08-20T02:09:19;20.52;;;18.00;;
39502;SDS011;26970;49.900;10.774;2022-08-20T02:11:45;20.17;;;17.30;;
39502;SDS011;26970;49.900;10.774;2022-08-20T02:14:11;20.20;;;16.98;;
39502;SDS011;26970;49.900;10.774;2022-08-20T02:16:39;22.85;;;17.55;;
39502;SDS011;26970;49.900;10.774;2022-08-20T02:19:20;21.10;;;17.67;;
39502;SDS011;26970;49.900;10.774;2022-08-20T02:21:50;20.52;;;16.98;;
39502;SDS011;26970;49.900;10.774;2022-08-20T02:24:19;20.00;;;16.58;;
39502;SDS011;26970;49.900;10.774;2022-08-20T02:26:45;20.85;;;17.42;;
39502;SDS011;26970;49.900;10.774;2022-08-20T02:29:12;18.48;;;16.48;;
39502;SDS011;26970;49.900;10.774;2022-08-20T02:31:39;22.08;;;17.67;;
39502;SDS011;26970;49.900;10.774;2022-08-20T02:34:06;19.05;;;16.42;;
39502;SDS011;26970;49.900;10.774;2022-08-20T02:36:33;18.65;;;16.55;;
39502;SDS011;26970;49.900;10.774;2022-08-20T02:39:02;18.95;;;16.92;;
39502;SDS011;26970;49.900;10.774;2022-08-20T02:41:30;21.00;;;17.13;;
39502;SDS011;26970;49.900;10.774;2022-08-20T02:43:56;20.27;;;17.38;;
39502;SDS011;26970;49.900;10.774;2022-08-20T02:46:22;20.65;;;17.30;;
39502;SDS011;26970;49.900;10.774;2022-08-20T02:48:47;22.38;;;17.50;;
39502;SDS011;26970;49.900;10.774;2022-08-20T02:51:13;21.55;;;17.13;;
39502;SDS011;26970;49.900;10.774;2022-08-20T02:53:39;21.27;;;17.88;;
39502;SDS011;26970;49.900;10.774;2022-08-20T02:56:06;21.63;;;18.35;;
39502;SDS011;26970;49.900;10.774;2022-08-20T02:58:32;25.42;;;18.45;;
39502;SDS011;26970;49.900;10.774;2022-08-20T03:00:59;19.30;;;17.20;;
39502;SDS011;26970;49.900;10.774;2022-08-20T03:03:26;21.67;;;17.80;;
39502;SDS011;26970;49.900;10.774;2022-08-20T03:05:53;26.65;;;19.10;;
39502;SDS011;26970;49.900;10.774;2022-08-20T03:08:21;26.35;;;20.60;;
39502;SDS011;26970;49.900;10.774;2022-08-20T03:10:47;21.80;;;18.55;;
39502;SDS011;26970;49.900;10.774;2022-08-20T03:13:14;22.30;;;19.08;;
39502;SDS011;26970;49.900;10.774;2022-08-20T03:16:13;23.08;;;19.27;;
39502;SDS011;26970;49.900;10.774;2022-08-20T03:21:00;22.30;;;19.02;;
39502;SDS011;26970;49.900;10.774;2022-08-20T03:23:28;24.17;;;20.70;;
39502;SDS011;26970;49.900;10.774;2022-08-20T03:25:54;25.42;;;21.42;;
39502;SDS011;26970;49.900;10.774;2022-08-20T03:28:20;24.95;;;20.35;;
39502;SDS011;26970;49.900;10.774;2022-08-20T03:30:46;27.27;;;21.05;;
39502;SDS011;26970;49.900;10.774;2022-08-20T03:33:11;22.92;;;20.08;;
39502;SDS011;26970;49.900;10.774;2022-08-20T03:35:37;27.65;;;20.75;;
39502;SDS011;26970;49.900;10.774;2022-08-20T03:38:07;24.80;;;20.13;;
39502;SDS011;26970;49.900;10.774;2022-08-20T03:40:35;26.90;;;20.73;;
39502;SDS011;26970;49.900;10.774;2022-08-20T03:43:02;24.45;;;19.92;;
39502;SDS011;26970;49.900;10.774;2022-08-20T03:45:29;26.52;;;20.73;;
39502;SDS011;26970;49.900;10.774;2022-08-20T03:47:56;24.45;;;20.15;;
39502;SDS011;26970;49.900;10.774;2022-08-20T03:50:23;28.75;;;21.73;;
39502;SDS011;26970;49.900;10.774;2022-08-20T03:52:51;26.65;;;22.38;;
39502;SDS011;26970;49.900;10.774;2022-08-20T03:55:18;26.52;;;21.52;;
39502;SDS011;26970;49.900;10.774;2022-08-20T03:57:46;30.95;;;23.10;;
39502;SDS011;26970;49.900;10.774;2022-08-20T04:00:30;28.48;;;21.77;;
39502;SDS011;26970;49.900;10.774;2022-08-20T04:03:08;30.27;;;23.23;;
39502;SDS011;26970;49.900;10.774;2022-08-20T04:05:35;31.23;;;25.35;;
39502;SDS011;26970;49.900;10.774;2022-08-20T04:08:06;33.70;;;24.17;;
39502;SDS011;26970;49.900;10.774;2022-08-20T04:10:34;35.72;;;26.58;;
39502;SDS011;26970;49.900;10.774;2022-08-20T04:13:00;33.00;;;25.15;;
39502;SDS011;26970;49.900;10.774;2022-08-20T04:15:26;36.20;;;25.75;;
39502;SDS011;26970;49.900;10.774;2022-08-20T04:17:52;34.90;;;25.85;;
39502;SDS011;26970;49.900;10.774;2022-08-20T04:20:20;39.10;;;25.67;;
39502;SDS011;26970;49.900;10.774;2022-08-20T04:22:56;33.90;;;25.05;;
39502;SDS011;26970;49.900;10.774;2022-08-20T04:25:22;37.80;;;25.80;;
39502;SDS011;26970;49.900;10.774;2022-08-20T04:27:48;39.72;;;26.08;;
39502;SDS011;26970;49.900;10.774;2022-08-20T04:30:15;34.47;;;26.10;;
39502;SDS011;26970;49.900;10.774;2022-08-20T04:32:42;41.50;;;27.02;;
39502;SDS011;26970;49.900;10.774;2022-08-20T04:35:10;42.67;;;27.38;;
39502;SDS011;26970;49.900;10.774;2022-08-20T04:37:40;83.60;;;27.38;;
39502;SDS011;26970;49.900;10.774;2022-08-20T04:40:08;57.22;;;27.27;;
39502;SDS011;26970;49.900;10.774;2022-08-20T04:42:55;78.43;;;29.02;;
39502;SDS011;26970;49.900;10.774;2022-08-20T04:45:22;108.03;;;27.92;;
39502;SDS011;26970;49.900;10.774;2022-08-20T04:47:48;50.10;;;28.55;;
39502;SDS011;26970;49.900;10.774;2022-08-20T04:50:15;66.75;;;29.92;;
39502;SDS011;26970;49.900;10.774;2022-08-20T04:52:41;53.53;;;29.58;;
39502;SDS011;26970;49.900;10.774;2022-08-20T04:55:07;49.17;;;30.00;;
39502;SDS011;26970;49.900;10.774;2022-08-20T04:57:34;46.78;;;30.55;;
39502;SDS011;26970;49.900;10.774;2022-08-20T05:00:03;150.77;;;28.88;;
39502;SDS011;26970;49.900;10.774;2022-08-20T05:02:32;61.28;;;27.80;;
39502;SDS011;26970;49.900;10.774;2022-08-20T05:04:59;154.25;;;30.58;;
39502;SDS011;26970;49.900;10.774;2022-08-20T05:07:24;104.18;;;29.25;;
39502;SDS011;26970;49.900;10.774;2022-08-20T05:09:50;115.13;;;28.98;;
39502;SDS011;26970;49.900;10.774;2022-08-20T05:12:15;80.93;;;30.77;;
39502;SDS011;26970;49.900;10.774;2022-08-20T05:14:42;75.55;;;28.85;;
39502;SDS011;26970;49.900;10.774;2022-08-20T05:17:07;52.72;;;27.00;;
39502;SDS011;26970;49.900;10.774;2022-08-20T05:19:33;107.70;;;30.42;;
39502;SDS011;26970;49.900;10.774;2022-08-20T05:22:04;45.83;;;27.20;;
39502;SDS011;26970;49.900;10.774;2022-08-20T05:24:29;89.25;;;26.80;;
39502;SDS011;26970;49.900;10.774;2022-08-20T05:26:55;52.78;;;28.75;;
39502;SDS011;26970;49.900;10.774;2022-08-20T05:29:21;85.90;;;28.50;;
39502;SDS011;26970;49.900;10.774;2022-08-20T05:31:47;171.57;;;27.40;;
39502;SDS011;26970;49.900;10.774;2022-08-20T05:34:13;44.10;;;26.33;;
39502;SDS011;26970;49.900;10.774;2022-08-20T05:36:44;45.60;;;28.13;;
39502;SDS011;26970;49.900;10.774;2022-08-20T05:39:12;62.53;;;28.85;;
39502;SDS011;26970;49.900;10.774;2022-08-20T05:41:38;50.60;;;28.35;;
39502;SDS011;26970;49.900;10.774;2022-08-20T05:44:05;40.25;;;27.50;;
39502;SDS011;26970;49.900;10.774;2022-08-20T05:46:35;103.35;;;27.95;;
39502;SDS011;26970;49.900;10.774;2022-08-20T05:49:08;46.13;;;28.00;;
39502;SDS011;26970;49.900;10.774;2022-08-20T05:51:39;35.15;;;24.67;;
39502;SDS011;26970;49.900;10.774;2022-08-20T05:54:04;30.67;;;24.17;;
39502;SDS011;26970;49.900;10.774;2022-08-20T05:56:31;31.35;;;24.73;;
39502;SDS011;26970;49.900;10.774;2022-08-20T05:58:58;37.45;;;25.13;;
39502;SDS011;26970;49.900;10.774;2022-08-20T06:01:27;35.17;;;24.42;;
39502;SDS011;26970;49.900;10.774;2022-08-20T06:03:53;31.05;;;24.27;;
39502;SDS011;26970;49.900;10.774;2022-08-20T06:06:37;30.88;;;23.77;;
39502;SDS011;26970;49.900;10.774;2022-08-20T06:09:02;32.67;;;23.13;;
39502;SDS011;26970;49.900;10.774;2022-08-20T06:11:28;28.10;;;23.02;;
39502;SDS011;26970;49.900;10.774;2022-08-20T06:13:53;30.13;;;22.80;;
39502;SDS011;26970;49.900;10.774;2022-08-20T06:16:19;31.40;;;24.40;;
39502;SDS011;26970;49.900;10.774;2022-08-20T06:18:45;27.23;;;23.20;;
39502;SDS011;26970;49.900;10.774;2022-08-20T06:21:10;25.20;;;22.48;;
39502;SDS011;26970;49.900;10.774;2022-08-20T06:23:36;23.52;;;20.60;;
39502;SDS011;26970;49.900;10.774;2022-08-20T06:26:01;22.90;;;19.95;;
39502;SDS011;26970;49.900;10.774;2022-08-20T06:28:27;22.40;;;20.00;;
39502;SDS011;26970;49.900;10.774;2022-08-20T06:30:53;22.17;;;19.77;;
39502;SDS011;26970;49.900;10.774;2022-08-20T06:33:18;22.05;;;19.38;;
39502;SDS011;26970;49.900;10.774;2022-08-20T06:35:44;20.80;;;18.63;;
39502;SDS011;26970;49.900;10.774;2022-08-20T06:38:10;22.33;;;19.33;;
39502;SDS011;26970;49.900;10.774;2022-08-20T06:40:36;25.20;;;19.60;;
39502;SDS011;26970;49.900;10.774;2022-08-20T06:43:02;22.13;;;19.35;;
39502;SDS011;26970;49.900;10.774;2022-08-20T06:45:29;21.88;;;19.38;;
39502;SDS011;26970;49.900;10.774;2022-08-20T06:47:57;23.23;;;20.30;;
39502;SDS011;26970;49.900;10.774;2022-08-20T06:50:26;23.15;;;20.73;;
39502;SDS011;26970;49.900;10.774;2022-08-20T06:52:55;26.50;;;22.15;;
39502;SDS011;26970;49.900;10.774;2022-08-20T06:55:21;24.55;;;20.92;;
39502;SDS011;26970;49.900;10.774;2022-08-20T06:57:54;23.75;;;21.20;;
39502;SDS011;26970;49.900;10.774;2022-08-20T07:00:22;23.85;;;20.90;;
39502;SDS011;26970;49.900;10.774;2022-08-20T07:02:47;25.20;;;21.13;;
39502;SDS011;26970;49.900;10.774;2022-08-20T07:05:13;23.77;;;21.05;;
39502;SDS011;26970;49.900;10.774;2022-08-20T07:07:42;25.15;;;21.77;;
39502;SDS011;26970;49.900;10.774;2022-08-20T07:10:10;25.65;;;21.38;;
39502;SDS011;26970;49.900;10.774;2022-08-20T07:12:36;24.50;;;21.13;;
39502;SDS011;26970;49.900;10.774;2022-08-20T07:15:03;24.85;;;21.58;;
39502;SDS011;26970;49.900;10.774;2022-08-20T07:17:31;23.33;;;20.45;;
39502;SDS011;26970;49.900;10.774;2022-08-20T07:19:56;25.73;;;22.17;;
39502;SDS011;26970;49.900;10.774;2022-08-20T07:22:22;26.77;;;23.90;;
39502;SDS011;26970;49.900;10.774;2022-08-20T07:24:49;25.35;;;22.65;;
39502;SDS011;26970;49.900;10.774;2022-08-20T07:27:18;29.67;;;22.98;;
39502;SDS011;26970;49.900;10.774;2022-08-20T07:29:47;28.48;;;23.05;;
39502;SDS011;26970;49.900;10.774;2022-08-20T07:32:33;22.95;;;20.38;;
39502;SDS011;26970;49.900;10.774;2022-08-20T07:35:00;24.27;;;20.75;;
39502;SDS011;26970;49.900;10.774;2022-08-20T07:37:38;22.55;;;20.13;;
39502;SDS011;26970;49.900;10.774;2022-08-20T07:40:06;22.13;;;19.58;;
39502;SDS011;26970;49.900;10.774;2022-08-20T07:42:36;23.05;;;19.35;;
39502;SDS011;26970;49.900;10.774;2022-08-20T07:45:08;21.75;;;19.05;;
39502;SDS011;26970;49.900;10.774;2022-08-20T07:47:35;22.03;;;19.60;;
39502;SDS011;26970;49.900;10.774;2022-08-20T07:50:03;23.05;;;19.42;;
39502;SDS011;26970;49.900;10.774;2022-08-20T07:52:29;21.73;;;18.90;;
39502;SDS011;26970;49.900;10.774;2022-08-20T07:54:54;22.38;;;19.98;;
39502;SDS011;26970;49.900;10.774;2022-08-20T07:57:20;22.88;;;19.45;;
39502;SDS011;26970;49.900;10.774;2022-08-20T07:59:45;20.67;;;18.52;;
39502;SDS011;26970;49.900;10.774;2022-08-20T08:02:12;20.90;;;18.70;;
39502;SDS011;26970;49.900;10.774;2022-08-20T08:04:38;22.10;;;19.05;;
39502;SDS011;26970;49.900;10.774;2022-08-20T08:07:03;20.50;;;18.23;;
39502;SDS011;26970;49.900;10.774;2022-08-20T08:09:29;21.45;;;18.88;;
39502;SDS011;26970;49.900;10.774;2022-08-20T08:11:58;23.52;;;17.92;;
39502;SDS011;26970;49.900;10.774;2022-08-20T08:14:27;20.70;;;17.13;;
39502;SDS011;26970;49.900;10.774;2022-08-20T08:16:56;18.42;;;16.58;;
39502;SDS011;26970;49.900;10.774;2022-08-20T08:19:24;18.98;;;16.02;;
39502;SDS011;26970;49.900;10.774;2022-08-20T08:21:52;17.15;;;14.75;;
39502;SDS011;26970;49.900;10.774;2022-08-20T08:24:19;16.13;;;13.65;;
39502;SDS011;26970;49.900;10.774;2022-08-20T08:26:44;15.05;;;13.55;;
39502;SDS011;26970;49.900;10.774;2022-08-20T08:29:10;16.70;;;14.10;;
39502;SDS011;26970;49.900;10.774;2022-08-20T08:31:36;15.63;;;13.13;;
39502;SDS011;26970;49.900;10.774;2022-08-20T08:34:02;14.00;;;12.55;;
39502;SDS011;26970;49.900;10.774;2022-08-20T08:36:28;14.85;;;13.32;;
39502;SDS011;26970;49.900;10.774;2022-08-20T08:38:53;16.40;;;13.43;;
39502;SDS011;26970;49.900;10.774;2022-08-20T08:41:23;16.58;;;13.77;;
39502;SDS011;26970;49.900;10.774;2022-08-20T08:44:09;14.85;;;13.23;;
39502;SDS011;26970;49.900;10.774;2022-08-20T08:46:39;15.07;;;13.48;;
39502;SDS011;26970;49.900;10.774;2022-08-20T08:49:09;15.18;;;13.45;;
39502;SDS011;26970;49.900;10.774;2022-08-20T08:51:53;14.18;;;12.85;;
39502;SDS011;26970;49.900;10.774;2022-08-20T08:54:23;14.80;;;13.13;;
39502;SDS011;26970;49.900;10.774;2022-08-20T08:56:52;15.65;;;12.98;;
39502;SDS011;26970;49.900;10.774;2022-08-20T08:59:19;13.90;;;12.35;;
39502;SDS011;26970;49.900;10.774;2022-08-20T09:01:47;16.00;;;12.77;;
39502;SDS011;26970;49.900;10.774;2022-08-20T09:04:16;12.93;;;11.40;;
39502;SDS011;26970;49.900;10.774;2022-08-20T09:06:44;15.23;;;11.18;;
39502;SDS011;26970;49.900;10.774;2022-08-20T09:09:21;14.52;;;12.43;;
39502;SDS011;26970;49.900;10.774;2022-08-20T09:11:51;13.63;;;11.77;;
39502;SDS011;26970;49.900;10.774;2022-08-20T09:14:19;13.32;;;11.63;;
39502;SDS011;26970;49.900;10.774;2022-08-20T09:16:48;12.52;;;11.23;;
39502;SDS011;26970;49.900;10.774;2022-08-20T09:19:14;16.00;;;11.30;;
39502;SDS011;26970;49.900;10.774;2022-08-20T09:21:40;13.02;;;11.02;;
39502;SDS011;26970;49.900;10.774;2022-08-20T09:24:05;12.05;;;10.73;;
39502;SDS011;26970;49.900;10.774;2022-08-20T09:26:31;15.10;;;12.80;;
39502;SDS011;26970;49.900;10.774;2022-08-20T09:28:57;19.02;;;12.50;;
39502;SDS011;26970;49.900;10.774;2022-08-20T09:31:22;14.35;;;12.90;;
39502;SDS011;26970;49.900;10.774;2022-08-20T09:33:49;13.73;;;11.93;;
39502;SDS011;26970;49.900;10.774;2022-08-20T09:36:15;15.93;;;12.80;;
39502;SDS011;26970;49.900;10.774;2022-08-20T09:38:40;17.17;;;12.20;;
39502;SDS011;26970;49.900;10.774;2022-08-20T09:41:06;13.05;;;11.70;;
39502;SDS011;26970;49.900;10.774;2022-08-20T09:43:32;13.90;;;11.20;;
39502;SDS011;26970;49.900;10.774;2022-08-20T09:45:57;15.43;;;11.73;;
39502;SDS011;26970;49.900;10.774;2022-08-20T09:48:23;15.45;;;11.10;;
39502;SDS011;26970;49.900;10.774;2022-08-20T09:50:48;14.90;;;13.13;;
39502;SDS011;26970;49.900;10.774;2022-08-20T09:53:15;15.65;;;12.43;;
39502;SDS011;26970;49.900;10.774;2022-08-20T09:55:43;14.20;;;12.35;;
39502;SDS011;26970;49.900;10.774;2022-08-20T10:00:46;15.10;;;12.43;;
39502;SDS011;26970;49.900;10.774;2022-08-20T10:03:12;17.40;;;13.27;;
39502;SDS011;26970;49.900;10.774;2022-08-20T10:05:38;13.40;;;12.02;;
39502;SDS011;26970;49.900;10.774;2022-08-20T10:08:07;15.93;;;12.35;;
39502;SDS011;26970;49.900;10.774;2022-08-20T10:10:34;16.08;;;13.27;;
39502;SDS011;26970;49.900;10.774;2022-08-20T10:12:59;16.08;;;12.95;;
39502;SDS011;26970;49.900;10.774;2022-08-20T10:15:26;15.65;;;13.02;;
39502;SDS011;26970;49.900;10.774;2022-08-20T10:17:52;15.93;;;13.25;;
39502;SDS011;26970;49.900;10.774;2022-08-20T10:20:18;16.55;;;14.10;;
39502;SDS011;26970;49.900;10.774;2022-08-20T10:22:44;15.40;;;13.68;;
39502;SDS011;26970;49.900;10.774;2022-08-20T10:25:09;18.92;;;14.35;;
39502;SDS011;26970;49.900;10.774;2022-08-20T10:27:36;16.38;;;13.73;;
39502;SDS011;26970;49.900;10.774;2022-08-20T10:30:03;19.77;;;13.82;;
39502;SDS011;26970;49.900;10.774;2022-08-20T10:32:30;15.25;;;13.65;;
39502;SDS011;26970;49.900;10.774;2022-08-20T10:34:55;16.42;;;13.43;;
39502;SDS011;26970;49.900;10.774;2022-08-20T10:37:22;17.67;;;14.82;;
39502;SDS011;26970;49.900;10.774;2022-08-20T10:39:49;19.25;;;13.27;;
39502;SDS011;26970;49.900;10.774;2022-08-20T10:42:15;15.85;;;13.35;;
39502;SDS011;26970;49.900;10.774;2022-08-20T10:44:40;13.88;;;12.02;;
39502;SDS011;26970;49.900;10.774;2022-08-20T10:47:25;15.00;;;12.50;;
39502;SDS011;26970;49.900;10.774;2022-08-20T10:49:57;13.90;;;11.27;;
39502;SDS011;26970;49.900;10.774;2022-08-20T10:52:25;19.63;;;10.63;;
39502;SDS011;26970;49.900;10.774;2022-08-20T10:54:52;16.90;;;10.60;;
39502;SDS011;26970;49.900;10.774;2022-08-20T10:57:19;12.80;;;10.23;;
39502;SDS011;26970;49.900;10.774;2022-08-20T10:59:48;18.70;;;11.00;;
39502;SDS011;26970;49.900;10.774;2022-08-20T11:02:16;18.20;;;11.43;;
39502;SDS011;26970;49.900;10.774;2022-08-20T11:04:42;18.17;;;13.65;;
39502;SDS011;26970;49.900;10.774;2022-08-20T11:07:09;16.63;;;10.27;;
39502;SDS011;26970;49.900;10.774;2022-08-20T11:09:39;15.43;;;6.53;;
39502;SDS011;26970;49.900;10.774;2022-08-20T11:12:05;12.70;;;7.75;;
39502;SDS011;26970;49.900;10.774;2022-08-20T11:14:31;17.80;;;13.10;;
39502;SDS011;26970;49.900;10.774;2022-08-20T11:16:57;19.23;;;14.20;;
39502;SDS011;26970;49.900;10.774;2022-08-20T11:19:23;21.52;;;16.52;;
39502;SDS011;26970;49.900;10.774;2022-08-20T11:21:49;21.48;;;16.95;;
39502;SDS011;26970;49.900;10.774;2022-08-20T11:24:14;22.15;;;15.45;;
39502;SDS011;26970;49.900;10.774;2022-08-20T11:26:40;20.17;;;15.95;;
39502;SDS011;26970;49.900;10.774;2022-08-20T11:29:05;20.63;;;15.68;;
39502;SDS011;26970;49.900;10.774;2022-08-20T11:31:31;20.25;;;14.18;;
39502;SDS011;26970;49.900;10.774;2022-08-20T11:33:57;18.55;;;14.93;;
39502;SDS011;26970;49.900;10.774;2022-08-20T11:36:22;17.92;;;13.13;;
39502;SDS011;26970;49.900;10.774;2022-08-20T11:38:50;15.20;;;12.50;;
39502;SDS011;26970;49.900;10.774;2022-08-20T11:41:16;21.83;;;13.90;;
39502;SDS011;26970;49.900;10.774;2022-08-20T11:43:41;19.55;;;13.82;;
39502;SDS011;26970;49.900;10.774;2022-08-20T11:46:07;17.08;;;13.90;;
39502;SDS011;26970;49.900;10.774;2022-08-20T11:48:33;20.10;;;14.38;;
39502;SDS011;26970;49.900;10.774;2022-08-20T11:50:58;17.02;;;12.65;;
39502;SDS011;26970;49.900;10.774;2022-08-20T11:53:24;19.23;;;13.48;;
39502;SDS011;26970;49.900;10.774;2022-08-20T11:55:49;15.63;;;12.45;;
39502;SDS011;26970;49.900;10.774;2022-08-20T11:58:15;18.98;;;14.05;;
39502;SDS011;26970;49.900;10.774;2022-08-20T12:00:41;20.65;;;14.75;;
39502;SDS011;26970;49.900;10.774;2022-08-20T12:03:07;17.92;;;14.05;;
39502;SDS011;26970;49.900;10.774;2022-08-20T12:05:32;18.77;;;13.35;;
39502;SDS011;26970;49.900;10.774;2022-08-20T12:08:01;17.98;;;12.43;;
39502;SDS011;26970;49.900;10.774;2022-08-20T12:10:28;10.20;;;8.68;;
39502;SDS011;26970;49.900;10.774;2022-08-20T12:12:54;8.82;;;7.10;;
39502;SDS011;26970;49.900;10.774;2022-08-20T12:15:20;7.38;;;5.57;;
39502;SDS011;26970;49.900;10.774;2022-08-20T12:17:46;10.95;;;8.43;;
39502;SDS011;26970;49.900;10.774;2022-08-20T12:20:12;13.75;;;6.35;;
39502;SDS011;26970;49.900;10.774;2022-08-20T12:22:38;9.52;;;6.25;;
39502;SDS011;26970;49.900;10.774;2022-08-20T12:25:06;8.18;;;6.65;;
39502;SDS011;26970;49.900;10.774;2022-08-20T12:27:32;8.10;;;6.75;;
39502;SDS011;26970;49.900;10.774;2022-08-20T12:30:00;9.73;;;7.10;;
39502;SDS011;26970;49.900;10.774;2022-08-20T12:32:30;9.90;;;7.00;;
39502;SDS011;26970;49.900;10.774;2022-08-20T12:34:56;9.27;;;6.57;;
39502;SDS011;26970;49.900;10.774;2022-08-20T12:37:23;8.80;;;6.88;;
39502;SDS011;26970;49.900;10.774;2022-08-20T12:39:52;7.60;;;6.78;;
39502;SDS011;26970;49.900;10.774;2022-08-20T12:42:20;7.80;;;6.88;;
39502;SDS011;26970;49.900;10.774;2022-08-20T12:44:46;9.35;;;7.15;;
39502;SDS011;26970;49.900;10.774;2022-08-20T12:49:43;9.38;;;6.60;;
39502;SDS011;26970;49.900;10.774;2022-08-20T12:52:13;9.43;;;5.80;;
39502;SDS011;26970;49.900;10.774;2022-08-20T12:54:40;10.65;;;6.50;;
39502;SDS011;26970;49.900;10.774;2022-08-20T12:57:06;8.98;;;6.20;;
39502;SDS011;26970;49.900;10.774;2022-08-20T12:59:37;9.50;;;6.35;;
39502;SDS011;26970;49.900;10.774;2022-08-20T13:02:02;8.20;;;6.05;;
39502;SDS011;26970;49.900;10.774;2022-08-20T13:04:28;7.32;;;6.25;;
39502;SDS011;26970;49.900;10.774;2022-08-20T13:06:58;9.70;;;6.50;;
39502;SDS011;26970;49.900;10.774;2022-08-20T13:09:25;9.15;;;6.50;;
39502;SDS011;26970;49.900;10.774;2022-08-20T13:11:50;7.55;;;6.30;;
39502;SDS011;26970;49.900;10.774;2022-08-20T13:14:16;10.45;;;6.63;;
39502;SDS011;26970;49.900;10.774;2022-08-20T13:16:41;9.80;;;6.68;;
39502;SDS011;26970;49.900;10.774;2022-08-20T13:19:07;9.23;;;6.55;;
39502;SDS011;26970;49.900;10.774;2022-08-20T13:21:32;8.60;;;6.13;;
39502;SDS011;26970;49.900;10.774;2022-08-20T13:23:58;7.22;;;6.05;;
39502;SDS011;26970;49.900;10.774;2022-08-20T13:26:23;6.72;;;5.50;;
39502;SDS011;26970;49.900;10.774;2022-08-20T13:28:49;6.55;;;5.15;;
39502;SDS011;26970;49.900;10.774;2022-08-20T13:31:14;7.07;;;5.28;;
39502;SDS011;26970;49.900;10.774;2022-08-20T13:33:40;8.45;;;5.75;;
39502;SDS011;26970;49.900;10.774;2022-08-20T13:36:05;6.60;;;5.90;;
39502;SDS011;26970;49.900;10.774;2022-08-20T13:38:31;7.35;;;5.88;;
39502;SDS011;26970;49.900;10.774;2022-08-20T13:40:58;9.00;;;6.40;;
39502;SDS011;26970;49.900;10.774;2022-08-20T13:43:23;8.60;;;6.43;;
39502;SDS011;26970;49.900;10.774;2022-08-20T13:45:49;8.82;;;7.03;;
39502;SDS011;26970;49.900;10.774;2022-08-20T13:48:14;8.45;;;6.85;;
39502;SDS011;26970;49.900;10.774;2022-08-20T13:50:40;7.15;;;6.30;;
39502;SDS011;26970;49.900;10.774;2022-08-20T13:53:06;9.18;;;6.70;;
39502;SDS011;26970;49.900;10.774;2022-08-20T13:55:31;11.80;;;5.82;;
39502;SDS011;26970;49.900;10.774;2022-08-20T13:58:02;7.82;;;6.18;;
39502;SDS011;26970;49.900;10.774;2022-08-20T14:02:56;15.82;;;6.40;;
39502;SDS011;26970;49.900;10.774;2022-08-20T14:05:21;6.40;;;5.30;;
39502;SDS011;26970;49.900;10.774;2022-08-20T14:07:47;7.70;;;6.63;;
39502;SDS011;26970;49.900;10.774;2022-08-20T14:10:18;7.07;;;6.18;;
39502;SDS011;26970;49.900;10.774;2022-08-20T14:12:48;7.38;;;6.32;;
39502;SDS011;26970;49.900;10.774;2022-08-20T14:15:14;12.02;;;7.00;;
39502;SDS011;26970;49.900;10.774;2022-08-20T14:17:41;8.63;;;5.72;;
39502;SDS011;26970;49.900;10.774;2022-08-20T14:20:14;7.85;;;6.30;;
39502;SDS011;26970;49.900;10.774;2022-08-20T14:22:41;8.73;;;6.35;;
39502;SDS011;26970;49.900;10.774;2022-08-20T14:25:08;7.65;;;6.05;;
39502;SDS011;26970;49.900;10.774;2022-08-20T14:27:35;8.23;;;6.28;;
39502;SDS011;26970;49.900;10.774;2022-08-20T14:30:02;9.48;;;6.53;;
39502;SDS011;26970;49.900;10.774;2022-08-20T14:32:31;8.02;;;6.30;;
39502;SDS011;26970;49.900;10.774;2022-08-20T14:34:56;7.32;;;5.78;;
39502;SDS011;26970;49.900;10.774;2022-08-20T14:37:27;7.68;;;6.05;;
39502;SDS011;26970;49.900;10.774;2022-08-20T14:39:55;8.82;;;5.78;;